sensor_id;sensor_type;location;lat;lon;timestamp;P1;durP1;ratioP1;P2;durP2;ratioP2
33403;SDS011;19751;40.274;18.268;2022-07-30T00:00:36;6.18;;;4.45;;
33403;SDS011;19751;40.274;18.268;2022-07-30T00:03:08;4.25;;;3.85;;
33403;SDS011;19751;40.274;18.268;2022-07-30T00:05:36;4.97;;;3.45;;
33403;SDS011;19751;40.274;18.268;2022-07-30T00:08:01;6.07;;;3.50;;
33403;SDS011;19751;40.274;18.268;2022-07-30T00:10:27;4.10;;;3.70;;
33403;SDS011;19751;40.274;18.268;2022-07-30T00:12:55;4.55;;;3.85;;
33403;SDS011;19751;40.274;18.268;2022-07-30T00:15:21;4.95;;;4.38;;
33403;SDS011;19751;40.274;18.268;2022-07-30T00:17:47;4.05;;;3.55;;
33403;SDS011;19751;40.274;18.268;2022-07-30T00:20:12;4.72;;;3.75;;
33403;SDS011;19751;40.274;18.268;2022-07-30T00:22:38;5.38;;;4.05;;
33403;SDS011;19751;40.274;18.268;2022-07-30T00:25:04;7.13;;;4.60;;
33403;SDS011;19751;40.274;18.268;2022-07-30T00:27:30;7.60;;;4.38;;
33403;SDS011;19751;40.274;18.268;2022-07-30T00:29:59;6.72;;;4.60;;
33403;SDS011;19751;40.274;18.268;2022-07-30T00:32:26;4.90;;;4.40;;
33403;SDS011;19751;40.274;18.268;2022-07-30T00:34:56;5.07;;;4.57;;
33403;SDS011;19751;40.274;18.268;2022-07-30T00:37:22;5.43;;;4.43;;
33403;SDS011;19751;40.274;18.268;2022-07-30T00:39:47;4.90;;;3.92;;
33403;SDS011;19751;40.274;18.268;2022-07-30T00:42:13;4.50;;;4.10;;
33403;SDS011;19751;40.274;18.268;2022-07-30T00:44:41;5.00;;;4.15;;
33403;SDS011;19751;40.274;18.268;2022-07-30T00:47:07;3.78;;;3.40;;
33403;SDS011;19751;40.274;18.268;2022-07-30T00:49:33;4.05;;;3.63;;
33403;SDS011;19751;40.274;18.268;2022-07-30T00:51:58;4.30;;;3.90;;
33403;SDS011;19751;40.274;18.268;2022-07-30T00:54:24;4.35;;;3.83;;
33403;SDS011;19751;40.274;18.268;2022-07-30T00:56:50;5.53;;;4.38;;
33403;SDS011;19751;40.274;18.268;2022-07-30T00:59:15;5.00;;;4.57;;
33403;SDS011;19751;40.274;18.268;2022-07-30T01:01:43;3.83;;;3.50;;
33403;SDS011;19751;40.274;18.268;2022-07-30T01:04:09;4.88;;;4.22;;
33403;SDS011;19751;40.274;18.268;2022-07-30T01:06:39;4.72;;;3.95;;
33403;SDS011;19751;40.274;18.268;2022-07-30T01:09:06;4.68;;;4.28;;
33403;SDS011;19751;40.274;18.268;2022-07-30T01:11:41;4.40;;;4.07;;
33403;SDS011;19751;40.274;18.268;2022-07-30T01:14:07;6.35;;;4.45;;
33403;SDS011;19751;40.274;18.268;2022-07-30T01:16:34;4.65;;;4.25;;
33403;SDS011;19751;40.274;18.268;2022-07-30T01:19:03;5.78;;;4.47;;
33403;SDS011;19751;40.274;18.268;2022-07-30T01:21:59;4.18;;;3.80;;
33403;SDS011;19751;40.274;18.268;2022-07-30T01:24:42;8.70;;;4.95;;
33403;SDS011;19751;40.274;18.268;2022-07-30T01:27:15;5.53;;;4.53;;
33403;SDS011;19751;40.274;18.268;2022-07-30T01:29:42;4.50;;;3.97;;
33403;SDS011;19751;40.274;18.268;2022-07-30T01:32:16;4.55;;;4.15;;
33403;SDS011;19751;40.274;18.268;2022-07-30T01:34:48;5.90;;;4.35;;
33403;SDS011;19751;40.274;18.268;2022-07-30T01:37:23;7.65;;;4.38;;
33403;SDS011;19751;40.274;18.268;2022-07-30T01:39:51;6.68;;;4.50;;
33403;SDS011;19751;40.274;18.268;2022-07-30T01:42:20;8.93;;;4.75;;
33403;SDS011;19751;40.274;18.268;2022-07-30T01:44:48;4.93;;;4.53;;
33403;SDS011;19751;40.274;18.268;2022-07-30T01:47:15;4.25;;;3.85;;
33403;SDS011;19751;40.274;18.268;2022-07-30T01:49:46;4.75;;;4.22;;
33403;SDS011;19751;40.274;18.268;2022-07-30T01:52:13;5.28;;;4.50;;
33403;SDS011;19751;40.274;18.268;2022-07-30T01:54:52;4.63;;;4.15;;
33403;SDS011;19751;40.274;18.268;2022-07-30T01:57:20;5.18;;;4.40;;
33403;SDS011;19751;40.274;18.268;2022-07-30T01:59:48;5.13;;;4.45;;
33403;SDS011;19751;40.274;18.268;2022-07-30T02:02:16;7.13;;;4.13;;
33403;SDS011;19751;40.274;18.268;2022-07-30T02:04:41;5.70;;;4.45;;
33403;SDS011;19751;40.274;18.268;2022-07-30T02:07:19;5.97;;;4.10;;
33403;SDS011;19751;40.274;18.268;2022-07-30T02:09:58;4.63;;;4.10;;
33403;SDS011;19751;40.274;18.268;2022-07-30T02:12:29;4.40;;;4.00;;
33403;SDS011;19751;40.274;18.268;2022-07-30T02:20:29;6.57;;;4.35;;
33403;SDS011;19751;40.274;18.268;2022-07-30T02:23:04;5.43;;;4.10;;
33403;SDS011;19751;40.274;18.268;2022-07-30T02:25:34;4.30;;;3.88;;
33403;SDS011;19751;40.274;18.268;2022-07-30T02:28:07;4.53;;;4.10;;
33403;SDS011;19751;40.274;18.268;2022-07-30T02:30:36;4.80;;;4.38;;
33403;SDS011;19751;40.274;18.268;2022-07-30T02:33:10;4.50;;;4.10;;
33403;SDS011;19751;40.274;18.268;2022-07-30T02:35:41;4.45;;;4.00;;
33403;SDS011;19751;40.274;18.268;2022-07-30T02:38:07;5.45;;;4.22;;
33403;SDS011;19751;40.274;18.268;2022-07-30T02:40:35;4.57;;;4.18;;
33403;SDS011;19751;40.274;18.268;2022-07-30T02:43:06;4.35;;;3.95;;
33403;SDS011;19751;40.274;18.268;2022-07-30T02:45:31;5.75;;;3.53;;
33403;SDS011;19751;40.274;18.268;2022-07-30T02:48:03;3.90;;;3.47;;
33403;SDS011;19751;40.274;18.268;2022-07-30T02:50:36;5.82;;;3.70;;
33403;SDS011;19751;40.274;18.268;2022-07-30T02:53:04;5.30;;;4.80;;
33403;SDS011;19751;40.274;18.268;2022-07-30T02:55:34;5.78;;;4.50;;
33403;SDS011;19751;40.274;18.268;2022-07-30T02:58:03;5.32;;;4.20;;
33403;SDS011;19751;40.274;18.268;2022-07-30T03:00:30;5.32;;;4.40;;
33403;SDS011;19751;40.274;18.268;2022-07-30T03:02:57;5.13;;;4.63;;
33403;SDS011;19751;40.274;18.268;2022-07-30T03:05:24;5.30;;;4.80;;
33403;SDS011;19751;40.274;18.268;2022-07-30T03:07:51;4.97;;;4.57;;
33403;SDS011;19751;40.274;18.268;2022-07-30T03:10:19;7.53;;;5.10;;
33403;SDS011;19751;40.274;18.268;2022-07-30T03:12:45;6.30;;;5.15;;
33403;SDS011;19751;40.274;18.268;2022-07-30T03:15:12;6.15;;;5.47;;
33403;SDS011;19751;40.274;18.268;2022-07-30T03:17:40;8.20;;;5.53;;
33403;SDS011;19751;40.274;18.268;2022-07-30T03:20:11;6.30;;;5.70;;
33403;SDS011;19751;40.274;18.268;2022-07-30T03:22:42;8.30;;;5.70;;
33403;SDS011;19751;40.274;18.268;2022-07-30T03:25:11;6.90;;;6.20;;
33403;SDS011;19751;40.274;18.268;2022-07-30T03:27:43;6.63;;;5.70;;
33403;SDS011;19751;40.274;18.268;2022-07-30T03:30:09;7.75;;;5.07;;
33403;SDS011;19751;40.274;18.268;2022-07-30T03:32:36;5.55;;;5.05;;
33403;SDS011;19751;40.274;18.268;2022-07-30T03:35:03;5.72;;;5.00;;
33403;SDS011;19751;40.274;18.268;2022-07-30T03:37:31;6.47;;;5.55;;
33403;SDS011;19751;40.274;18.268;2022-07-30T03:40:01;6.80;;;5.35;;
33403;SDS011;19751;40.274;18.268;2022-07-30T03:42:27;5.82;;;5.03;;
33403;SDS011;19751;40.274;18.268;2022-07-30T03:44:55;7.57;;;5.20;;
33403;SDS011;19751;40.274;18.268;2022-07-30T03:47:22;5.07;;;4.65;;
33403;SDS011;19751;40.274;18.268;2022-07-30T03:49:48;7.53;;;4.88;;
33403;SDS011;19751;40.274;18.268;2022-07-30T03:52:14;13.05;;;5.47;;
33403;SDS011;19751;40.274;18.268;2022-07-30T03:54:41;6.97;;;5.20;;
33403;SDS011;19751;40.274;18.268;2022-07-30T03:57:07;7.78;;;5.45;;
33403;SDS011;19751;40.274;18.268;2022-07-30T03:59:32;7.88;;;5.40;;
33403;SDS011;19751;40.274;18.268;2022-07-30T04:01:59;7.35;;;4.80;;
33403;SDS011;19751;40.274;18.268;2022-07-30T04:04:27;5.90;;;5.40;;
33403;SDS011;19751;40.274;18.268;2022-07-30T04:06:54;10.07;;;4.60;;
33403;SDS011;19751;40.274;18.268;2022-07-30T04:09:21;6.22;;;4.90;;
33403;SDS011;19751;40.274;18.268;2022-07-30T04:11:46;7.28;;;4.95;;
33403;SDS011;19751;40.274;18.268;2022-07-30T04:14:11;9.43;;;5.63;;
33403;SDS011;19751;40.274;18.268;2022-07-30T04:16:42;8.18;;;5.72;;
33403;SDS011;19751;40.274;18.268;2022-07-30T04:19:14;7.25;;;5.70;;
33403;SDS011;19751;40.274;18.268;2022-07-30T04:21:49;10.57;;;6.25;;
33403;SDS011;19751;40.274;18.268;2022-07-30T04:24:17;8.02;;;5.47;;
33403;SDS011;19751;40.274;18.268;2022-07-30T04:26:44;14.07;;;5.97;;
33403;SDS011;19751;40.274;18.268;2022-07-30T04:29:10;9.50;;;6.05;;
33403;SDS011;19751;40.274;18.268;2022-07-30T04:31:36;11.05;;;5.60;;
33403;SDS011;19751;40.274;18.268;2022-07-30T04:34:03;11.30;;;6.32;;
33403;SDS011;19751;40.274;18.268;2022-07-30T04:36:32;8.30;;;6.35;;
33403;SDS011;19751;40.274;18.268;2022-07-30T04:38:59;15.35;;;6.90;;
33403;SDS011;19751;40.274;18.268;2022-07-30T04:41:27;14.10;;;6.82;;
33403;SDS011;19751;40.274;18.268;2022-07-30T04:43:53;12.25;;;6.07;;
33403;SDS011;19751;40.274;18.268;2022-07-30T04:46:19;7.72;;;5.88;;
33403;SDS011;19751;40.274;18.268;2022-07-30T04:48:45;13.27;;;6.28;;
33403;SDS011;19751;40.274;18.268;2022-07-30T04:51:21;9.98;;;6.82;;
33403;SDS011;19751;40.274;18.268;2022-07-30T04:53:59;12.10;;;6.57;;
33403;SDS011;19751;40.274;18.268;2022-07-30T04:56:34;6.50;;;5.85;;
33403;SDS011;19751;40.274;18.268;2022-07-30T04:59:01;7.65;;;6.45;;
33403;SDS011;19751;40.274;18.268;2022-07-30T05:01:32;6.28;;;5.72;;
33403;SDS011;19751;40.274;18.268;2022-07-30T05:04:02;6.80;;;6.10;;
33403;SDS011;19751;40.274;18.268;2022-07-30T05:06:30;6.40;;;5.80;;
33403;SDS011;19751;40.274;18.268;2022-07-30T05:08:59;6.43;;;5.82;;
33403;SDS011;19751;40.274;18.268;2022-07-30T05:11:25;7.40;;;5.53;;
33403;SDS011;19751;40.274;18.268;2022-07-30T05:13:53;6.57;;;5.97;;
33403;SDS011;19751;40.274;18.268;2022-07-30T05:16:24;8.75;;;6.20;;
33403;SDS011;19751;40.274;18.268;2022-07-30T05:18:50;6.82;;;5.30;;
33403;SDS011;19751;40.274;18.268;2022-07-30T05:21:19;8.75;;;5.95;;
33403;SDS011;19751;40.274;18.268;2022-07-30T05:23:45;6.55;;;5.70;;
33403;SDS011;19751;40.274;18.268;2022-07-30T05:26:10;5.88;;;4.85;;
33403;SDS011;19751;40.274;18.268;2022-07-30T05:28:36;6.63;;;5.53;;
33403;SDS011;19751;40.274;18.268;2022-07-30T05:31:04;6.60;;;5.03;;
33403;SDS011;19751;40.274;18.268;2022-07-30T05:33:32;5.63;;;5.13;;
33403;SDS011;19751;40.274;18.268;2022-07-30T05:35:58;5.95;;;5.45;;
33403;SDS011;19751;40.274;18.268;2022-07-30T05:38:26;6.43;;;5.68;;
33403;SDS011;19751;40.274;18.268;2022-07-30T05:40:54;5.95;;;5.38;;
33403;SDS011;19751;40.274;18.268;2022-07-30T05:43:20;5.60;;;5.07;;
33403;SDS011;19751;40.274;18.268;2022-07-30T05:45:46;6.10;;;5.60;;
33403;SDS011;19751;40.274;18.268;2022-07-30T05:48:22;6.68;;;5.43;;
33403;SDS011;19751;40.274;18.268;2022-07-30T05:50:51;6.40;;;5.90;;
33403;SDS011;19751;40.274;18.268;2022-07-30T05:53:17;5.95;;;5.35;;
33403;SDS011;19751;40.274;18.268;2022-07-30T05:55:43;6.38;;;5.78;;
33403;SDS011;19751;40.274;18.268;2022-07-30T05:58:08;5.97;;;5.47;;
33403;SDS011;19751;40.274;18.268;2022-07-30T06:00:34;5.25;;;4.85;;
33403;SDS011;19751;40.274;18.268;2022-07-30T06:03:02;6.63;;;4.70;;
33403;SDS011;19751;40.274;18.268;2022-07-30T06:05:30;6.22;;;5.72;;
33403;SDS011;19751;40.274;18.268;2022-07-30T06:07:56;6.22;;;5.72;;
33403;SDS011;19751;40.274;18.268;2022-07-30T06:10:22;5.95;;;5.45;;
33403;SDS011;19751;40.274;18.268;2022-07-30T06:12:48;5.88;;;5.38;;
33403;SDS011;19751;40.274;18.268;2022-07-30T06:15:14;5.45;;;5.03;;
33403;SDS011;19751;40.274;18.268;2022-07-30T06:17:43;6.18;;;5.68;;
33403;SDS011;19751;40.274;18.268;2022-07-30T06:20:10;6.93;;;5.72;;
33403;SDS011;19751;40.274;18.268;2022-07-30T06:22:37;6.22;;;5.63;;
33403;SDS011;19751;40.274;18.268;2022-07-30T06:25:03;5.75;;;5.25;;
33403;SDS011;19751;40.274;18.268;2022-07-30T06:27:29;6.90;;;6.20;;
33403;SDS011;19751;40.274;18.268;2022-07-30T06:29:59;5.75;;;5.35;;
33403;SDS011;19751;40.274;18.268;2022-07-30T06:32:25;5.97;;;5.57;;
33403;SDS011;19751;40.274;18.268;2022-07-30T06:34:54;6.60;;;6.00;;
33403;SDS011;19751;40.274;18.268;2022-07-30T06:37:19;6.32;;;5.82;;
33403;SDS011;19751;40.274;18.268;2022-07-30T06:39:45;7.05;;;6.35;;
33403;SDS011;19751;40.274;18.268;2022-07-30T06:42:11;6.43;;;5.93;;
33403;SDS011;19751;40.274;18.268;2022-07-30T06:44:36;6.45;;;5.82;;
33403;SDS011;19751;40.274;18.268;2022-07-30T06:47:01;7.05;;;6.25;;
33403;SDS011;19751;40.274;18.268;2022-07-30T06:49:30;6.25;;;5.65;;
33403;SDS011;19751;40.274;18.268;2022-07-30T06:51:56;5.57;;;4.95;;
33403;SDS011;19751;40.274;18.268;2022-07-30T06:54:22;6.43;;;5.82;;
33403;SDS011;19751;40.274;18.268;2022-07-30T06:56:47;5.50;;;5.00;;
33403;SDS011;19751;40.274;18.268;2022-07-30T06:59:13;6.80;;;6.10;;
33403;SDS011;19751;40.274;18.268;2022-07-30T07:01:38;6.22;;;5.72;;
33403;SDS011;19751;40.274;18.268;2022-07-30T07:04:04;6.68;;;6.07;;
33403;SDS011;19751;40.274;18.268;2022-07-30T07:06:29;31.52;;;7.57;;
33403;SDS011;19751;40.274;18.268;2022-07-30T07:08:55;58.75;;;11.90;;
33403;SDS011;19751;40.274;18.268;2022-07-30T07:11:20;22.35;;;7.75;;
33403;SDS011;19751;40.274;18.268;2022-07-30T07:13:46;8.10;;;6.20;;
33403;SDS011;19751;40.274;18.268;2022-07-30T07:16:11;7.40;;;5.85;;
33403;SDS011;19751;40.274;18.268;2022-07-30T07:18:36;6.68;;;5.53;;
33403;SDS011;19751;40.274;18.268;2022-07-30T07:21:02;6.00;;;5.50;;
33403;SDS011;19751;40.274;18.268;2022-07-30T07:23:28;7.78;;;5.30;;
33403;SDS011;19751;40.274;18.268;2022-07-30T07:25:54;5.68;;;4.80;;
33403;SDS011;19751;40.274;18.268;2022-07-30T07:28:20;6.55;;;6.03;;
33403;SDS011;19751;40.274;18.268;2022-07-30T07:30:46;6.20;;;5.70;;
33403;SDS011;19751;40.274;18.268;2022-07-30T07:33:11;6.80;;;5.60;;
33403;SDS011;19751;40.274;18.268;2022-07-30T07:35:37;6.63;;;6.07;;
33403;SDS011;19751;40.274;18.268;2022-07-30T07:38:03;6.07;;;5.47;;
33403;SDS011;19751;40.274;18.268;2022-07-30T07:40:28;6.18;;;5.57;;
33403;SDS011;19751;40.274;18.268;2022-07-30T07:42:54;5.60;;;5.10;;
33403;SDS011;19751;40.274;18.268;2022-07-30T07:45:19;5.70;;;5.03;;
33403;SDS011;19751;40.274;18.268;2022-07-30T07:47:46;6.65;;;5.10;;
33403;SDS011;19751;40.274;18.268;2022-07-30T07:50:18;5.75;;;5.20;;
33403;SDS011;19751;40.274;18.268;2022-07-30T07:52:43;5.72;;;5.30;;
33403;SDS011;19751;40.274;18.268;2022-07-30T07:55:09;5.88;;;5.10;;
33403;SDS011;19751;40.274;18.268;2022-07-30T07:57:39;4.82;;;4.32;;
33403;SDS011;19751;40.274;18.268;2022-07-30T08:00:05;6.75;;;5.32;;
33403;SDS011;19751;40.274;18.268;2022-07-30T08:02:31;5.65;;;4.50;;
33403;SDS011;19751;40.274;18.268;2022-07-30T08:04:57;4.60;;;4.20;;
33403;SDS011;19751;40.274;18.268;2022-07-30T08:07:22;4.35;;;3.95;;
33403;SDS011;19751;40.274;18.268;2022-07-30T08:09:48;4.53;;;3.95;;
33403;SDS011;19751;40.274;18.268;2022-07-30T08:12:13;5.07;;;3.95;;
33403;SDS011;19751;40.274;18.268;2022-07-30T08:14:39;4.88;;;4.47;;
33403;SDS011;19751;40.274;18.268;2022-07-30T08:17:14;4.32;;;3.63;;
33403;SDS011;19751;40.274;18.268;2022-07-30T08:19:40;4.10;;;3.70;;
33403;SDS011;19751;40.274;18.268;2022-07-30T08:22:05;4.00;;;3.70;;
33403;SDS011;19751;40.274;18.268;2022-07-30T08:24:31;4.15;;;3.85;;
33403;SDS011;19751;40.274;18.268;2022-07-30T08:26:57;4.53;;;4.13;;
33403;SDS011;19751;40.274;18.268;2022-07-30T08:29:23;4.10;;;3.70;;
33403;SDS011;19751;40.274;18.268;2022-07-30T08:31:48;4.68;;;4.00;;
33403;SDS011;19751;40.274;18.268;2022-07-30T08:34:14;9.43;;;3.60;;
33403;SDS011;19751;40.274;18.268;2022-07-30T08:36:40;4.72;;;4.32;;
33403;SDS011;19751;40.274;18.268;2022-07-30T08:39:06;4.07;;;3.78;;
33403;SDS011;19751;40.274;18.268;2022-07-30T08:41:31;6.20;;;3.83;;
33403;SDS011;19751;40.274;18.268;2022-07-30T08:43:58;4.03;;;3.60;;
33403;SDS011;19751;40.274;18.268;2022-07-30T08:46:26;4.07;;;3.78;;
33403;SDS011;19751;40.274;18.268;2022-07-30T08:48:55;4.22;;;3.60;;
33403;SDS011;19751;40.274;18.268;2022-07-30T08:51:22;3.72;;;3.42;;
33403;SDS011;19751;40.274;18.268;2022-07-30T08:53:48;4.45;;;4.05;;
33403;SDS011;19751;40.274;18.268;2022-07-30T08:56:14;4.68;;;3.45;;
33403;SDS011;19751;40.274;18.268;2022-07-30T08:58:40;3.67;;;3.30;;
33403;SDS011;19751;40.274;18.268;2022-07-30T09:01:05;6.00;;;3.38;;
33403;SDS011;19751;40.274;18.268;2022-07-30T09:03:31;3.92;;;3.63;;
33403;SDS011;19751;40.274;18.268;2022-07-30T09:05:58;3.55;;;3.25;;
33403;SDS011;19751;40.274;18.268;2022-07-30T09:08:25;4.60;;;3.30;;
33403;SDS011;19751;40.274;18.268;2022-07-30T09:10:50;4.10;;;3.72;;
33403;SDS011;19751;40.274;18.268;2022-07-30T09:13:25;4.07;;;3.70;;
33403;SDS011;19751;40.274;18.268;2022-07-30T09:15:51;4.60;;;3.42;;
33403;SDS011;19751;40.274;18.268;2022-07-30T09:21:12;4.82;;;3.63;;
33403;SDS011;19751;40.274;18.268;2022-07-30T09:26:28;4.57;;;4.15;;
33403;SDS011;19751;40.274;18.268;2022-07-30T09:29:07;4.05;;;3.72;;
33403;SDS011;19751;40.274;18.268;2022-07-30T09:31:57;4.15;;;3.25;;
33403;SDS011;19751;40.274;18.268;2022-07-30T09:34:28;4.97;;;3.22;;
33403;SDS011;19751;40.274;18.268;2022-07-30T09:36:56;4.15;;;3.83;;
33403;SDS011;19751;40.274;18.268;2022-07-30T09:42:15;4.45;;;3.50;;
33403;SDS011;19751;40.274;18.268;2022-07-30T09:44:50;7.28;;;3.60;;
33403;SDS011;19751;40.274;18.268;2022-07-30T09:47:29;4.32;;;3.65;;
33403;SDS011;19751;40.274;18.268;2022-07-30T09:50:02;3.78;;;3.47;;
33403;SDS011;19751;40.274;18.268;2022-07-30T09:52:28;4.70;;;3.75;;
33403;SDS011;19751;40.274;18.268;2022-07-30T09:54:53;4.03;;;3.40;;
33403;SDS011;19751;40.274;18.268;2022-07-30T09:57:19;5.78;;;3.70;;
33403;SDS011;19751;40.274;18.268;2022-07-30T09:59:44;4.15;;;3.75;;
33403;SDS011;19751;40.274;18.268;2022-07-30T10:02:10;5.10;;;4.18;;
33403;SDS011;19751;40.274;18.268;2022-07-30T10:04:36;5.68;;;4.38;;
33403;SDS011;19751;40.274;18.268;2022-07-30T10:07:01;4.35;;;4.05;;
33403;SDS011;19751;40.274;18.268;2022-07-30T10:09:28;4.65;;;4.20;;
33403;SDS011;19751;40.274;18.268;2022-07-30T10:11:59;4.72;;;4.13;;
33403;SDS011;19751;40.274;18.268;2022-07-30T10:14:29;4.30;;;3.90;;
33403;SDS011;19751;40.274;18.268;2022-07-30T10:16:57;3.83;;;3.53;;
33403;SDS011;19751;40.274;18.268;2022-07-30T10:19:24;4.63;;;4.07;;
33403;SDS011;19751;40.274;18.268;2022-07-30T10:21:49;6.85;;;4.25;;
33403;SDS011;19751;40.274;18.268;2022-07-30T10:24:16;4.60;;;3.95;;
33403;SDS011;19751;40.274;18.268;2022-07-30T10:26:42;4.43;;;4.03;;
33403;SDS011;19751;40.274;18.268;2022-07-30T10:29:10;5.05;;;4.53;;
33403;SDS011;19751;40.274;18.268;2022-07-30T10:31:36;4.85;;;4.45;;
33403;SDS011;19751;40.274;18.268;2022-07-30T10:34:02;4.97;;;4.20;;
33403;SDS011;19751;40.274;18.268;2022-07-30T10:36:28;5.10;;;4.70;;
33403;SDS011;19751;40.274;18.268;2022-07-30T10:38:55;6.65;;;4.57;;
33403;SDS011;19751;40.274;18.268;2022-07-30T10:47:09;5.38;;;4.88;;
33403;SDS011;19751;40.274;18.268;2022-07-30T10:49:39;5.73;;;4.67;;
33403;SDS011;19751;40.274;18.268;2022-07-30T10:52:05;5.53;;;5.03;;
33403;SDS011;19751;40.274;18.268;2022-07-30T10:57:15;8.15;;;5.45;;
33403;SDS011;19751;40.274;18.268;2022-07-30T11:02:28;5.10;;;4.70;;
33403;SDS011;19751;40.274;18.268;2022-07-30T11:07:42;4.97;;;4.47;;
33403;SDS011;19751;40.274;18.268;2022-07-30T11:13:04;5.43;;;4.45;;
33403;SDS011;19751;40.274;18.268;2022-07-30T11:18:22;5.75;;;3.90;;
33403;SDS011;19751;40.274;18.268;2022-07-30T11:23:44;4.32;;;3.92;;
33403;SDS011;19751;40.274;18.268;2022-07-30T11:26:11;4.50;;;4.10;;
33403;SDS011;19751;40.274;18.268;2022-07-30T11:34:48;4.47;;;4.07;;
33403;SDS011;19751;40.274;18.268;2022-07-30T11:37:14;4.55;;;4.15;;
33403;SDS011;19751;40.274;18.268;2022-07-30T11:42:28;5.60;;;3.83;;
33403;SDS011;19751;40.274;18.268;2022-07-30T11:47:46;4.28;;;3.08;;
33403;SDS011;19751;40.274;18.268;2022-07-30T11:50:19;4.00;;;3.70;;
33403;SDS011;19751;40.274;18.268;2022-07-30T11:52:50;4.72;;;3.72;;
33403;SDS011;19751;40.274;18.268;2022-07-30T11:55:29;5.35;;;3.80;;
33403;SDS011;19751;40.274;18.268;2022-07-30T11:58:00;4.45;;;3.90;;
33403;SDS011;19751;40.274;18.268;2022-07-30T12:05:35;3.80;;;3.40;;
33403;SDS011;19751;40.274;18.268;2022-07-30T12:08:02;4.35;;;3.38;;
33403;SDS011;19751;40.274;18.268;2022-07-30T12:10:27;3.92;;;3.60;;
33403;SDS011;19751;40.274;18.268;2022-07-30T12:13:04;4.45;;;4.00;;
33403;SDS011;19751;40.274;18.268;2022-07-30T12:15:33;4.25;;;3.90;;
33403;SDS011;19751;40.274;18.268;2022-07-30T12:18:00;4.25;;;3.85;;
33403;SDS011;19751;40.274;18.268;2022-07-30T12:20:25;3.30;;;3.08;;
33403;SDS011;19751;40.274;18.268;2022-07-30T12:22:52;4.03;;;3.50;;
33403;SDS011;19751;40.274;18.268;2022-07-30T12:25:18;4.40;;;3.92;;
33403;SDS011;19751;40.274;18.268;2022-07-30T12:27:45;4.20;;;3.80;;
33403;SDS011;19751;40.274;18.268;2022-07-30T12:30:11;3.42;;;3.13;;
33403;SDS011;19751;40.274;18.268;2022-07-30T12:32:38;6.38;;;3.47;;
33403;SDS011;19751;40.274;18.268;2022-07-30T12:35:03;3.72;;;3.42;;
33403;SDS011;19751;40.274;18.268;2022-07-30T12:37:29;3.03;;;2.78;;
33403;SDS011;19751;40.274;18.268;2022-07-30T12:42:30;3.75;;;3.35;;
33403;SDS011;19751;40.274;18.268;2022-07-30T12:44:56;6.05;;;3.97;;
33403;SDS011;19751;40.274;18.268;2022-07-30T12:47:23;7.60;;;3.50;;
33403;SDS011;19751;40.274;18.268;2022-07-30T12:49:51;3.80;;;3.50;;
33403;SDS011;19751;40.274;18.268;2022-07-30T12:52:22;3.92;;;3.17;;
33403;SDS011;19751;40.274;18.268;2022-07-30T12:55:01;5.32;;;3.17;;
33403;SDS011;19751;40.274;18.268;2022-07-30T12:57:50;4.18;;;3.63;;
33403;SDS011;19751;40.274;18.268;2022-07-30T13:03:25;3.80;;;3.33;;
33403;SDS011;19751;40.274;18.268;2022-07-30T13:05:53;4.10;;;3.70;;
33403;SDS011;19751;40.274;18.268;2022-07-30T13:08:19;4.13;;;3.72;;
33403;SDS011;19751;40.274;18.268;2022-07-30T13:10:58;4.80;;;3.35;;
33403;SDS011;19751;40.274;18.268;2022-07-30T13:13:27;4.00;;;3.60;;
33403;SDS011;19751;40.274;18.268;2022-07-30T13:16:04;4.53;;;3.53;;
33403;SDS011;19751;40.274;18.268;2022-07-30T13:18:30;3.10;;;2.90;;
33403;SDS011;19751;40.274;18.268;2022-07-30T13:20:58;4.65;;;3.70;;
33403;SDS011;19751;40.274;18.268;2022-07-30T13:23:25;3.88;;;3.58;;
33403;SDS011;19751;40.274;18.268;2022-07-30T13:25:54;4.93;;;3.30;;
33403;SDS011;19751;40.274;18.268;2022-07-30T13:28:20;3.58;;;2.88;;
33403;SDS011;19751;40.274;18.268;2022-07-30T13:30:45;4.55;;;3.95;;
33403;SDS011;19751;40.274;18.268;2022-07-30T13:33:11;3.78;;;3.15;;
33403;SDS011;19751;40.274;18.268;2022-07-30T13:35:37;3.40;;;3.10;;
33403;SDS011;19751;40.274;18.268;2022-07-30T13:38:03;3.92;;;3.17;;
33403;SDS011;19751;40.274;18.268;2022-07-30T13:40:30;4.75;;;3.20;;
33403;SDS011;19751;40.274;18.268;2022-07-30T13:42:56;3.67;;;3.38;;
33403;SDS011;19751;40.274;18.268;2022-07-30T13:45:26;3.25;;;2.90;;
33403;SDS011;19751;40.274;18.268;2022-07-30T13:47:51;3.83;;;3.53;;
33403;SDS011;19751;40.274;18.268;2022-07-30T13:50:17;4.85;;;3.58;;
33403;SDS011;19751;40.274;18.268;2022-07-30T13:52:43;3.15;;;2.88;;
33403;SDS011;19751;40.274;18.268;2022-07-30T13:55:12;3.25;;;2.95;;
33403;SDS011;19751;40.274;18.268;2022-07-30T13:57:38;3.85;;;2.85;;
33403;SDS011;19751;40.274;18.268;2022-07-30T14:00:04;4.03;;;3.17;;
33403;SDS011;19751;40.274;18.268;2022-07-30T14:02:31;6.70;;;3.83;;
33403;SDS011;19751;40.274;18.268;2022-07-30T14:04:58;3.20;;;2.60;;
33403;SDS011;19751;40.274;18.268;2022-07-30T14:07:31;3.10;;;2.90;;
33403;SDS011;19751;40.274;18.268;2022-07-30T14:09:58;5.78;;;3.72;;
33403;SDS011;19751;40.274;18.268;2022-07-30T14:12:23;3.65;;;2.80;;
33403;SDS011;19751;40.274;18.268;2022-07-30T14:14:49;4.35;;;3.22;;
33403;SDS011;19751;40.274;18.268;2022-07-30T14:17:14;3.60;;;3.30;;
33403;SDS011;19751;40.274;18.268;2022-07-30T14:19:40;4.65;;;3.55;;
33403;SDS011;19751;40.274;18.268;2022-07-30T14:22:05;3.63;;;3.33;;
33403;SDS011;19751;40.274;18.268;2022-07-30T14:24:31;3.63;;;3.33;;
33403;SDS011;19751;40.274;18.268;2022-07-30T14:26:57;4.20;;;3.08;;
33403;SDS011;19751;40.274;18.268;2022-07-30T14:29:22;3.42;;;3.20;;
33403;SDS011;19751;40.274;18.268;2022-07-30T14:31:48;4.70;;;3.40;;
33403;SDS011;19751;40.274;18.268;2022-07-30T14:34:13;3.38;;;3.08;;
33403;SDS011;19751;40.274;18.268;2022-07-30T14:36:41;3.55;;;3.25;;
33403;SDS011;19751;40.274;18.268;2022-07-30T14:39:07;4.45;;;3.97;;
33403;SDS011;19751;40.274;18.268;2022-07-30T14:41:33;3.53;;;3.22;;
33403;SDS011;19751;40.274;18.268;2022-07-30T14:44:01;2.70;;;2.50;;
33403;SDS011;19751;40.274;18.268;2022-07-30T14:46:27;3.63;;;3.15;;
33403;SDS011;19751;40.274;18.268;2022-07-30T14:48:52;3.72;;;3.17;;
33403;SDS011;19751;40.274;18.268;2022-07-30T14:51:18;4.20;;;3.75;;
33403;SDS011;19751;40.274;18.268;2022-07-30T14:53:44;3.63;;;3.28;;
33403;SDS011;19751;40.274;18.268;2022-07-30T14:56:09;3.40;;;3.10;;
33403;SDS011;19751;40.274;18.268;2022-07-30T14:58:35;6.85;;;4.30;;
33403;SDS011;19751;40.274;18.268;2022-07-30T15:01:00;4.07;;;3.45;;
33403;SDS011;19751;40.274;18.268;2022-07-30T15:03:28;3.30;;;3.10;;
33403;SDS011;19751;40.274;18.268;2022-07-30T15:05:53;3.50;;;3.10;;
33403;SDS011;19751;40.274;18.268;2022-07-30T15:08:19;3.67;;;3.30;;
33403;SDS011;19751;40.274;18.268;2022-07-30T15:10:45;3.35;;;2.90;;
33403;SDS011;19751;40.274;18.268;2022-07-30T15:13:11;3.58;;;3.00;;
33403;SDS011;19751;40.274;18.268;2022-07-30T15:15:36;2.83;;;2.63;;
33403;SDS011;19751;40.274;18.268;2022-07-30T15:18:02;4.72;;;3.63;;
33403;SDS011;19751;40.274;18.268;2022-07-30T15:20:27;4.63;;;3.00;;
33403;SDS011;19751;40.274;18.268;2022-07-30T15:22:53;4.10;;;3.10;;
33403;SDS011;19751;40.274;18.268;2022-07-30T15:25:18;6.70;;;3.35;;
33403;SDS011;19751;40.274;18.268;2022-07-30T15:27:44;4.15;;;3.00;;
33403;SDS011;19751;40.274;18.268;2022-07-30T15:30:10;4.25;;;3.00;;
33403;SDS011;19751;40.274;18.268;2022-07-30T15:32:36;4.80;;;3.75;;
33403;SDS011;19751;40.274;18.268;2022-07-30T15:35:02;8.93;;;4.18;;